sensor_id;sensor_type;location;lat;lon;timestamp;temperature;humidity
9564;DHT22;4820;50.870;4.702;2024-01-07T00:01:48;5.40;99.90
9564;DHT22;4820;50.870;4.702;2024-01-07T00:04:17;5.30;99.90
9564;DHT22;4820;50.870;4.702;2024-01-07T00:06:43;5.30;99.90
9564;DHT22;4820;50.870;4.702;2024-01-07T00:09:11;5.30;99.90
9564;DHT22;4820;50.870;4.702;2024-01-07T00:11:37;5.30;99.90
9564;DHT22;4820;50.870;4.702;2024-01-07T00:14:02;5.40;99.90
9564;DHT22;4820;50.870;4.702;2024-01-07T00:16:28;5.40;99.90
9564;DHT22;4820;50.870;4.702;2024-01-07T00:18:54;5.30;99.90
9564;DHT22;4820;50.870;4.702;2024-01-07T00:21:20;5.20;99.90
9564;DHT22;4820;50.870;4.702;2024-01-07T00:23:45;5.20;99.90
9564;DHT22;4820;50.870;4.702;2024-01-07T00:26:11;5.20;99.90
9564;DHT22;4820;50.870;4.702;2024-01-07T00:28:37;5.30;99.90
9564;DHT22;4820;50.870;4.702;2024-01-07T00:31:02;5.30;99.90
9564;DHT22;4820;50.870;4.702;2024-01-07T00:33:29;5.40;99.90
9564;DHT22;4820;50.870;4.702;2024-01-07T00:35:55;5.40;99.90
9564;DHT22;4820;50.870;4.702;2024-01-07T00:38:21;5.40;99.90
9564;DHT22;4820;50.870;4.702;2024-01-07T00:40:47;5.30;99.90
9564;DHT22;4820;50.870;4.702;2024-01-07T00:43:12;5.20;99.90
9564;DHT22;4820;50.870;4.702;2024-01-07T00:45:38;5.10;99.90
9564;DHT22;4820;50.870;4.702;2024-01-07T00:48:04;5.00;99.90
9564;DHT22;4820;50.870;4.702;2024-01-07T00:50:29;5.00;99.90
9564;DHT22;4820;50.870;4.702;2024-01-07T00:52:55;5.00;99.90
9564;DHT22;4820;50.870;4.702;2024-01-07T00:55:21;4.90;99.90
9564;DHT22;4820;50.870;4.702;2024-01-07T00:57:47;4.90;99.90
9564;DHT22;4820;50.870;4.702;2024-01-07T01:00:13;4.90;99.90
9564;DHT22;4820;50.870;4.702;2024-01-07T01:02:39;4.80;99.90
9564;DHT22;4820;50.870;4.702;2024-01-07T01:05:05;4.80;99.90
9564;DHT22;4820;50.870;4.702;2024-01-07T01:07:31;4.70;99.90
9564;DHT22;4820;50.870;4.702;2024-01-07T01:09:58;4.70;99.90
9564;DHT22;4820;50.870;4.702;2024-01-07T01:12:24;4.70;99.90
9564;DHT22;4820;50.870;4.702;2024-01-07T01:14:49;4.70;99.90
9564;DHT22;4820;50.870;4.702;2024-01-07T01:17:15;4.60;99.90
9564;DHT22;4820;50.870;4.702;2024-01-07T01:19:41;4.60;99.90
9564;DHT22;4820;50.870;4.702;2024-01-07T01:22:06;4.60;99.90
9564;DHT22;4820;50.870;4.702;2024-01-07T01:24:32;4.60;99.90
9564;DHT22;4820;50.870;4.702;2024-01-07T01:26:58;4.70;99.90
9564;DHT22;4820;50.870;4.702;2024-01-07T01:29:24;4.60;99.90
9564;DHT22;4820;50.870;4.702;2024-01-07T01:31:49;4.70;99.90
9564;DHT22;4820;50.870;4.702;2024-01-07T01:34:15;4.60;99.90
9564;DHT22;4820;50.870;4.702;2024-01-07T01:36:41;4.60;99.90
9564;DHT22;4820;50.870;4.702;2024-01-07T01:39:06;4.50;99.90
9564;DHT22;4820;50.870;4.702;2024-01-07T01:41:32;4.50;99.90
9564;DHT22;4820;50.870;4.702;2024-01-07T01:44:00;4.50;99.90
9564;DHT22;4820;50.870;4.702;2024-01-07T01:46:26;4.50;99.90
9564;DHT22;4820;50.870;4.702;2024-01-07T01:48:54;4.60;99.90
9564;DHT22;4820;50.870;4.702;2024-01-07T01:51:20;4.60;99.90
9564;DHT22;4820;50.870;4.702;2024-01-07T01:53:47;4.50;99.90
9564;DHT22;4820;50.870;4.702;2024-01-07T01:56:14;4.50;99.90
9564;DHT22;4820;50.870;4.702;2024-01-07T01:58:42;4.50;99.90
9564;DHT22;4820;50.870;4.702;2024-01-07T02:01:08;4.50;99.90
9564;DHT22;4820;50.870;4.702;2024-01-07T02:03:33;4.50;99.90
9564;DHT22;4820;50.870;4.702;2024-01-07T02:05:59;4.50;99.90
9564;DHT22;4820;50.870;4.702;2024-01-07T02:08:25;4.50;99.90
9564;DHT22;4820;50.870;4.702;2024-01-07T02:10:51;4.40;99.90
9564;DHT22;4820;50.870;4.702;2024-01-07T02:13:17;4.40;99.90
9564;DHT22;4820;50.870;4.702;2024-01-07T02:15:43;4.40;99.90
9564;DHT22;4820;50.870;4.702;2024-01-07T02:18:09;4.40;99.90
9564;DHT22;4820;50.870;4.702;2024-01-07T02:20:35;4.30;99.90
9564;DHT22;4820;50.870;4.702;2024-01-07T02:23:04;4.20;99.90
9564;DHT22;4820;50.870;4.702;2024-01-07T02:25:37;4.20;99.90
9564;DHT22;4820;50.870;4.702;2024-01-07T02:28:04;4.20;99.90
9564;DHT22;4820;50.870;4.702;2024-01-07T02:30:30;4.20;99.90
9564;DHT22;4820;50.870;4.702;2024-01-07T02:32:55;4.20;99.90
9564;DHT22;4820;50.870;4.702;2024-01-07T02:35:21;4.20;99.90
9564;DHT22;4820;50.870;4.702;2024-01-07T02:37:47;4.30;99.90
9564;DHT22;4820;50.870;4.702;2024-01-07T02:40:12;4.30;99.90
9564;DHT22;4820;50.870;4.702;2024-01-07T02:42:38;4.30;99.90
9564;DHT22;4820;50.870;4.702;2024-01-07T02:45:04;4.30;99.90
9564;DHT22;4820;50.870;4.702;2024-01-07T02:47:30;4.20;99.90
9564;DHT22;4820;50.870;4.702;2024-01-07T02:49:55;4.30;99.90
9564;DHT22;4820;50.870;4.702;2024-01-07T02:52:21;4.20;99.90
9564;DHT22;4820;50.870;4.702;2024-01-07T02:54:47;4.20;99.90
9564;DHT22;4820;50.870;4.702;2024-01-07T02:57:12;4.20;99.90
9564;DHT22;4820;50.870;4.702;2024-01-07T02:59:38;4.20;99.90
9564;DHT22;4820;50.870;4.702;2024-01-07T03:02:03;4.20;99.90
9564;DHT22;4820;50.870;4.702;2024-01-07T03:04:29;4.20;99.90
9564;DHT22;4820;50.870;4.702;2024-01-07T03:06:55;4.10;99.90
9564;DHT22;4820;50.870;4.702;2024-01-07T03:09:20;4.20;99.90
9564;DHT22;4820;50.870;4.702;2024-01-07T03:11:46;4.20;99.90
9564;DHT22;4820;50.870;4.702;2024-01-07T03:14:12;4.20;99.90
9564;DHT22;4820;50.870;4.702;2024-01-07T03:16:37;4.10;99.90
9564;DHT22;4820;50.870;4.702;2024-01-07T03:19:03;4.20;99.90
9564;DHT22;4820;50.870;4.702;2024-01-07T03:21:30;4.20;99.90
9564;DHT22;4820;50.870;4.702;2024-01-07T03:23:55;4.10;99.90
9564;DHT22;4820;50.870;4.702;2024-01-07T03:26:21;4.10;99.90
9564;DHT22;4820;50.870;4.702;2024-01-07T03:28:47;4.10;99.90
9564;DHT22;4820;50.870;4.702;2024-01-07T03:31:14;4.10;99.90
9564;DHT22;4820;50.870;4.702;2024-01-07T03:33:41;4.10;99.90
9564;DHT22;4820;50.870;4.702;2024-01-07T03:36:12;4.10;99.90
9564;DHT22;4820;50.870;4.702;2024-01-07T03:38:39;4.10;99.90
9564;DHT22;4820;50.870;4.702;2024-01-07T03:41:05;4.00;99.90
9564;DHT22;4820;50.870;4.702;2024-01-07T03:43:31;4.00;99.90
9564;DHT22;4820;50.870;4.702;2024-01-07T03:45:57;3.90;99.90
9564;DHT22;4820;50.870;4.702;2024-01-07T03:48:23;4.00;99.90
9564;DHT22;4820;50.870;4.702;2024-01-07T03:50:49;3.90;99.90
9564;DHT22;4820;50.870;4.702;2024-01-07T03:53:15;4.00;99.90
9564;DHT22;4820;50.870;4.702;2024-01-07T03:55:41;3.90;99.90
9564;DHT22;4820;50.870;4.702;2024-01-07T03:58:06;3.90;99.90
9564;DHT22;4820;50.870;4.702;2024-01-07T04:00:33;3.90;99.90
9564;DHT22;4820;50.870;4.702;2024-01-07T04:02:59;3.90;99.90
9564;DHT22;4820;50.870;4.702;2024-01-07T04:05:25;4.00;99.90
9564;DHT22;4820;50.870;4.702;2024-01-07T04:07:50;3.90;99.90
9564;DHT22;4820;50.870;4.702;2024-01-07T04:10:17;3.90;99.90
9564;DHT22;4820;50.870;4.702;2024-01-07T04:12:43;3.90;99.90
9564;DHT22;4820;50.870;4.702;2024-01-07T04:15:09;4.00;99.90
9564;DHT22;4820;50.870;4.702;2024-01-07T04:17:35;4.00;99.90
9564;DHT22;4820;50.870;4.702;2024-01-07T04:20:00;4.00;99.90
9564;DHT22;4820;50.870;4.702;2024-01-07T04:22:26;4.10;99.90
9564;DHT22;4820;50.870;4.702;2024-01-07T04:24:52;4.00;99.90
9564;DHT22;4820;50.870;4.702;2024-01-07T04:27:17;4.00;99.90
9564;DHT22;4820;50.870;4.702;2024-01-07T04:29:43;4.00;99.90
9564;DHT22;4820;50.870;4.702;2024-01-07T04:32:08;4.00;99.90
9564;DHT22;4820;50.870;4.702;2024-01-07T04:34:34;3.90;99.90
9564;DHT22;4820;50.870;4.702;2024-01-07T04:37:00;4.00;99.90
9564;DHT22;4820;50.870;4.702;2024-01-07T04:39:25;3.90;99.90
9564;DHT22;4820;50.870;4.702;2024-01-07T04:41:51;3.90;99.90
9564;DHT22;4820;50.870;4.702;2024-01-07T04:44:17;3.90;99.90
9564;DHT22;4820;50.870;4.702;2024-01-07T04:46:43;3.90;99.90
9564;DHT22;4820;50.870;4.702;2024-01-07T04:49:08;3.90;99.90
9564;DHT22;4820;50.870;4.702;2024-01-07T04:51:34;3.90;99.90
9564;DHT22;4820;50.870;4.702;2024-01-07T04:54:02;3.90;99.90
9564;DHT22;4820;50.870;4.702;2024-01-07T04:56:27;3.90;99.90
9564;DHT22;4820;50.870;4.702;2024-01-07T04:58:53;4.00;99.90
9564;DHT22;4820;50.870;4.702;2024-01-07T05:01:19;3.90;99.90
9564;DHT22;4820;50.870;4.702;2024-01-07T05:03:44;4.00;99.90
9564;DHT22;4820;50.870;4.702;2024-01-07T05:06:10;3.90;99.90
9564;DHT22;4820;50.870;4.702;2024-01-07T05:08:37;3.90;99.90
9564;DHT22;4820;50.870;4.702;2024-01-07T05:11:03;3.90;99.90
9564;DHT22;4820;50.870;4.702;2024-01-07T05:13:30;3.90;99.90
9564;DHT22;4820;50.870;4.702;2024-01-07T05:15:55;3.90;99.90
9564;DHT22;4820;50.870;4.702;2024-01-07T05:18:25;3.90;99.90
9564;DHT22;4820;50.870;4.702;2024-01-07T05:20:51;3.90;99.90
9564;DHT22;4820;50.870;4.702;2024-01-07T05:23:17;3.90;99.90
9564;DHT22;4820;50.870;4.702;2024-01-07T05:25:43;3.90;99.90
9564;DHT22;4820;50.870;4.702;2024-01-07T05:28:10;3.90;99.90
9564;DHT22;4820;50.870;4.702;2024-01-07T05:30:36;3.80;99.90
9564;DHT22;4820;50.870;4.702;2024-01-07T05:33:02;3.90;99.90
9564;DHT22;4820;50.870;4.702;2024-01-07T05:35:27;3.90;99.90
9564;DHT22;4820;50.870;4.702;2024-01-07T05:37:53;3.90;99.90
9564;DHT22;4820;50.870;4.702;2024-01-07T05:40:19;3.90;99.90
9564;DHT22;4820;50.870;4.702;2024-01-07T05:42:44;3.90;99.90
9564;DHT22;4820;50.870;4.702;2024-01-07T05:45:10;3.90;99.90
9564;DHT22;4820;50.870;4.702;2024-01-07T05:47:36;3.90;99.90
9564;DHT22;4820;50.870;4.702;2024-01-07T05:50:01;3.80;99.90
9564;DHT22;4820;50.870;4.702;2024-01-07T05:52:28;3.80;99.90
9564;DHT22;4820;50.870;4.702;2024-01-07T05:54:54;3.80;99.90
9564;DHT22;4820;50.870;4.702;2024-01-07T05:57:19;3.80;99.90
9564;DHT22;4820;50.870;4.702;2024-01-07T05:59:45;3.80;99.90
9564;DHT22;4820;50.870;4.702;2024-01-07T06:02:11;3.80;99.90
9564;DHT22;4820;50.870;4.702;2024-01-07T06:04:38;3.80;99.90
9564;DHT22;4820;50.870;4.702;2024-01-07T06:07:04;3.80;99.90
9564;DHT22;4820;50.870;4.702;2024-01-07T06:09:29;3.80;99.90
9564;DHT22;4820;50.870;4.702;2024-01-07T06:11:55;3.80;99.90
9564;DHT22;4820;50.870;4.702;2024-01-07T06:14:24;3.80;99.90
9564;DHT22;4820;50.870;4.702;2024-01-07T06:16:50;3.80;99.90
9564;DHT22;4820;50.870;4.702;2024-01-07T06:19:20;3.70;99.90
9564;DHT22;4820;50.870;4.702;2024-01-07T06:21:46;3.70;99.90
9564;DHT22;4820;50.870;4.702;2024-01-07T06:24:11;3.70;99.90
9564;DHT22;4820;50.870;4.702;2024-01-07T06:26:37;3.70;99.90
9564;DHT22;4820;50.870;4.702;2024-01-07T06:29:03;3.70;99.90
9564;DHT22;4820;50.870;4.702;2024-01-07T06:31:29;3.70;99.90
9564;DHT22;4820;50.870;4.702;2024-01-07T06:33:55;3.70;99.90
9564;DHT22;4820;50.870;4.702;2024-01-07T06:36:24;3.70;99.90
9564;DHT22;4820;50.870;4.702;2024-01-07T06:38:50;3.70;99.90
9564;DHT22;4820;50.870;4.702;2024-01-07T06:41:16;3.70;99.90
9564;DHT22;4820;50.870;4.702;2024-01-07T06:43:42;3.70;99.90
9564;DHT22;4820;50.870;4.702;2024-01-07T06:46:07;3.70;99.90
9564;DHT22;4820;50.870;4.702;2024-01-07T06:48:33;3.70;99.90
9564;DHT22;4820;50.870;4.702;2024-01-07T06:50:59;3.70;99.90
9564;DHT22;4820;50.870;4.702;2024-01-07T06:53:24;3.80;99.90
9564;DHT22;4820;50.870;4.702;2024-01-07T06:55:50;3.70;99.90
9564;DHT22;4820;50.870;4.702;2024-01-07T06:58:16;3.70;99.90
9564;DHT22;4820;50.870;4.702;2024-01-07T07:00:41;3.60;99.90
9564;DHT22;4820;50.870;4.702;2024-01-07T07:03:08;3.60;99.90
9564;DHT22;4820;50.870;4.702;2024-01-07T07:05:33;3.60;99.90
9564;DHT22;4820;50.870;4.702;2024-01-07T07:07:59;3.60;99.90
9564;DHT22;4820;50.870;4.702;2024-01-07T07:10:25;3.50;99.90
9564;DHT22;4820;50.870;4.702;2024-01-07T07:12:51;3.50;99.90
9564;DHT22;4820;50.870;4.702;2024-01-07T07:15:17;3.50;99.90
9564;DHT22;4820;50.870;4.702;2024-01-07T07:17:43;3.60;99.90
9564;DHT22;4820;50.870;4.702;2024-01-07T07:20:09;3.60;99.90
9564;DHT22;4820;50.870;4.702;2024-01-07T07:22:35;3.60;99.90
9564;DHT22;4820;50.870;4.702;2024-01-07T07:25:01;3.60;99.90
9564;DHT22;4820;50.870;4.702;2024-01-07T07:27:27;3.70;99.90
9564;DHT22;4820;50.870;4.702;2024-01-07T07:29:53;3.70;99.90
9564;DHT22;4820;50.870;4.702;2024-01-07T07:32:19;3.80;99.90
9564;DHT22;4820;50.870;4.702;2024-01-07T07:34:44;3.80;99.90
9564;DHT22;4820;50.870;4.702;2024-01-07T07:37:10;3.80;99.90
9564;DHT22;4820;50.870;4.702;2024-01-07T07:39:36;3.70;99.90
9564;DHT22;4820;50.870;4.702;2024-01-07T07:42:01;3.70;99.90
9564;DHT22;4820;50.870;4.702;2024-01-07T07:44:27;3.60;99.90
9564;DHT22;4820;50.870;4.702;2024-01-07T07:46:53;3.60;99.90
9564;DHT22;4820;50.870;4.702;2024-01-07T07:49:18;3.60;99.90
9564;DHT22;4820;50.870;4.702;2024-01-07T07:51:44;3.60;99.90
9564;DHT22;4820;50.870;4.702;2024-01-07T07:54:10;3.60;99.90
9564;DHT22;4820;50.870;4.702;2024-01-07T07:56:35;3.60;99.90
9564;DHT22;4820;50.870;4.702;2024-01-07T07:59:04;3.60;99.90
9564;DHT22;4820;50.870;4.702;2024-01-07T08:01:30;3.60;99.90
9564;DHT22;4820;50.870;4.702;2024-01-07T08:03:56;3.60;99.90
9564;DHT22;4820;50.870;4.702;2024-01-07T08:06:21;3.50;99.90
9564;DHT22;4820;50.870;4.702;2024-01-07T08:08:47;3.50;99.90
9564;DHT22;4820;50.870;4.702;2024-01-07T08:11:13;3.50;99.90
9564;DHT22;4820;50.870;4.702;2024-01-07T08:13:39;3.50;99.90
9564;DHT22;4820;50.870;4.702;2024-01-07T08:16:05;3.50;99.90
9564;DHT22;4820;50.870;4.702;2024-01-07T08:18:31;3.50;99.90
9564;DHT22;4820;50.870;4.702;2024-01-07T08:20:57;3.60;99.90
9564;DHT22;4820;50.870;4.702;2024-01-07T08:23:24;3.60;99.90
9564;DHT22;4820;50.870;4.702;2024-01-07T08:25:50;3.50;99.90
9564;DHT22;4820;50.870;4.702;2024-01-07T08:28:17;3.60;99.90
9564;DHT22;4820;50.870;4.702;2024-01-07T08:30:44;3.50;99.90
9564;DHT22;4820;50.870;4.702;2024-01-07T08:33:10;3.60;99.90
9564;DHT22;4820;50.870;4.702;2024-01-07T08:35:36;3.60;99.90
9564;DHT22;4820;50.870;4.702;2024-01-07T08:38:02;3.60;99.90
9564;DHT22;4820;50.870;4.702;2024-01-07T08:40:28;3.60;99.90
9564;DHT22;4820;50.870;4.702;2024-01-07T08:42:55;3.60;99.90
9564;DHT22;4820;50.870;4.702;2024-01-07T08:45:20;3.60;99.90
9564;DHT22;4820;50.870;4.702;2024-01-07T08:47:46;3.60;99.90
9564;DHT22;4820;50.870;4.702;2024-01-07T08:50:12;3.60;99.90
9564;DHT22;4820;50.870;4.702;2024-01-07T08:52:38;3.60;99.90
9564;DHT22;4820;50.870;4.702;2024-01-07T08:55:04;3.50;99.90
9564;DHT22;4820;50.870;4.702;2024-01-07T08:57:32;3.60;99.90
9564;DHT22;4820;50.870;4.702;2024-01-07T08:59:58;3.60;99.90
9564;DHT22;4820;50.870;4.702;2024-01-07T09:02:24;3.60;99.90
9564;DHT22;4820;50.870;4.702;2024-01-07T09:04:50;3.60;99.90
9564;DHT22;4820;50.870;4.702;2024-01-07T09:07:15;3.60;99.90
9564;DHT22;4820;50.870;4.702;2024-01-07T09:09:42;3.50;99.90
9564;DHT22;4820;50.870;4.702;2024-01-07T09:12:08;3.40;99.90
9564;DHT22;4820;50.870;4.702;2024-01-07T09:14:33;3.40;99.90
9564;DHT22;4820;50.870;4.702;2024-01-07T09:16:59;3.50;99.90
9564;DHT22;4820;50.870;4.702;2024-01-07T09:19:25;3.50;99.90
9564;DHT22;4820;50.870;4.702;2024-01-07T09:21:50;3.40;99.90
9564;DHT22;4820;50.870;4.702;2024-01-07T09:24:16;3.40;99.90
9564;DHT22;4820;50.870;4.702;2024-01-07T09:26:42;3.40;99.90
9564;DHT22;4820;50.870;4.702;2024-01-07T09:29:08;3.40;99.90
9564;DHT22;4820;50.870;4.702;2024-01-07T09:31:34;3.40;99.90
9564;DHT22;4820;50.870;4.702;2024-01-07T09:33:59;3.30;99.90
9564;DHT22;4820;50.870;4.702;2024-01-07T09:36:27;3.30;99.90
9564;DHT22;4820;50.870;4.702;2024-01-07T09:38:53;3.30;99.90
9564;DHT22;4820;50.870;4.702;2024-01-07T09:41:19;3.30;99.90
9564;DHT22;4820;50.870;4.702;2024-01-07T09:43:45;3.20;99.90
9564;DHT22;4820;50.870;4.702;2024-01-07T09:46:10;3.20;99.90
9564;DHT22;4820;50.870;4.702;2024-01-07T09:48:36;3.20;99.90
9564;DHT22;4820;50.870;4.702;2024-01-07T09:51:04;3.20;99.90
9564;DHT22;4820;50.870;4.702;2024-01-07T09:53:31;3.20;99.90
9564;DHT22;4820;50.870;4.702;2024-01-07T09:58:29;3.10;99.90
9564;DHT22;4820;50.870;4.702;2024-01-07T10:00:55;3.10;99.90
9564;DHT22;4820;50.870;4.702;2024-01-07T10:03:21;3.00;99.90
9564;DHT22;4820;50.870;4.702;2024-01-07T10:05:46;3.00;99.90
9564;DHT22;4820;50.870;4.702;2024-01-07T10:08:12;2.90;99.90
9564;DHT22;4820;50.870;4.702;2024-01-07T10:10:38;3.00;99.90
9564;DHT22;4820;50.870;4.702;2024-01-07T10:13:06;3.00;99.90
9564;DHT22;4820;50.870;4.702;2024-01-07T10:15:34;3.00;99.90
9564;DHT22;4820;50.870;4.702;2024-01-07T10:18:03;3.10;99.90
9564;DHT22;4820;50.870;4.702;2024-01-07T10:20:32;3.10;99.90
9564;DHT22;4820;50.870;4.702;2024-01-07T10:22:59;3.10;99.90
9564;DHT22;4820;50.870;4.702;2024-01-07T10:25:24;3.10;99.90
9564;DHT22;4820;50.870;4.702;2024-01-07T10:27:50;3.10;99.90
9564;DHT22;4820;50.870;4.702;2024-01-07T10:30:16;3.10;99.90
9564;DHT22;4820;50.870;4.702;2024-01-07T10:32:42;3.10;99.90
9564;DHT22;4820;50.870;4.702;2024-01-07T10:35:12;3.10;99.90
9564;DHT22;4820;50.870;4.702;2024-01-07T10:37:40;3.10;99.90
9564;DHT22;4820;50.870;4.702;2024-01-07T10:40:07;3.10;99.90
9564;DHT22;4820;50.870;4.702;2024-01-07T10:42:33;3.10;99.90
9564;DHT22;4820;50.870;4.702;2024-01-07T10:45:00;3.10;99.90
9564;DHT22;4820;50.870;4.702;2024-01-07T10:47:30;3.00;99.90
9564;DHT22;4820;50.870;4.702;2024-01-07T10:49:57;3.00;99.90
9564;DHT22;4820;50.870;4.702;2024-01-07T10:52:26;3.00;99.90
9564;DHT22;4820;50.870;4.702;2024-01-07T10:54:52;3.00;99.90
9564;DHT22;4820;50.870;4.702;2024-01-07T10:57:32;2.90;99.90
9564;DHT22;4820;50.870;4.702;2024-01-07T11:00:00;3.00;99.90
9564;DHT22;4820;50.870;4.702;2024-01-07T11:02:26;2.90;99.90
9564;DHT22;4820;50.870;4.702;2024-01-07T11:07:41;2.90;99.90
9564;DHT22;4820;50.870;4.702;2024-01-07T11:10:18;3.00;99.90
9564;DHT22;4820;50.870;4.702;2024-01-07T11:12:54;2.90;99.90
9564;DHT22;4820;50.870;4.702;2024-01-07T11:15:53;2.90;99.90
9564;DHT22;4820;50.870;4.702;2024-01-07T11:18:21;2.90;99.90
9564;DHT22;4820;50.870;4.702;2024-01-07T11:20:47;3.00;99.90
9564;DHT22;4820;50.870;4.702;2024-01-07T11:23:30;3.00;99.90
9564;DHT22;4820;50.870;4.702;2024-01-07T11:25:57;3.00;99.90
9564;DHT22;4820;50.870;4.702;2024-01-07T11:28:46;3.00;99.90
9564;DHT22;4820;50.870;4.702;2024-01-07T11:31:16;2.90;99.90
9564;DHT22;4820;50.870;4.702;2024-01-07T11:33:43;2.90;99.90
9564;DHT22;4820;50.870;4.702;2024-01-07T11:36:11;2.90;99.90
9564;DHT22;4820;50.870;4.702;2024-01-07T11:38:41;2.90;99.90
9564;DHT22;4820;50.870;4.702;2024-01-07T11:41:08;2.90;99.90
9564;DHT22;4820;50.870;4.702;2024-01-07T11:43:34;2.90;99.90
9564;DHT22;4820;50.870;4.702;2024-01-07T11:46:00;3.00;99.90
9564;DHT22;4820;50.870;4.702;2024-01-07T11:48:26;2.90;99.90
9564;DHT22;4820;50.870;4.702;2024-01-07T11:50:52;2.90;99.90
9564;DHT22;4820;50.870;4.702;2024-01-07T11:53:18;2.80;99.90
9564;DHT22;4820;50.870;4.702;2024-01-07T11:55:45;2.80;99.90
9564;DHT22;4820;50.870;4.702;2024-01-07T11:58:10;2.90;99.90
9564;DHT22;4820;50.870;4.702;2024-01-07T12:00:36;2.80;99.90
9564;DHT22;4820;50.870;4.702;2024-01-07T12:03:03;2.80;99.90
9564;DHT22;4820;50.870;4.702;2024-01-07T12:05:29;2.80;99.90
9564;DHT22;4820;50.870;4.702;2024-01-07T12:07:55;2.90;99.90
9564;DHT22;4820;50.870;4.702;2024-01-07T12:10:23;2.80;99.90
9564;DHT22;4820;50.870;4.702;2024-01-07T12:12:49;2.80;99.90
9564;DHT22;4820;50.870;4.702;2024-01-07T12:15:16;2.90;99.90
9564;DHT22;4820;50.870;4.702;2024-01-07T12:17:42;2.80;99.90
9564;DHT22;4820;50.870;4.702;2024-01-07T12:20:10;2.90;99.90
9564;DHT22;4820;50.870;4.702;2024-01-07T12:22:38;2.80;99.90
9564;DHT22;4820;50.870;4.702;2024-01-07T12:25:08;2.80;99.90
9564;DHT22;4820;50.870;4.702;2024-01-07T12:27:34;2.80;99.90
9564;DHT22;4820;50.870;4.702;2024-01-07T12:30:01;2.80;99.90
9564;DHT22;4820;50.870;4.702;2024-01-07T12:32:30;2.90;99.90
9564;DHT22;4820;50.870;4.702;2024-01-07T12:34:59;2.80;99.90
9564;DHT22;4820;50.870;4.702;2024-01-07T12:37:27;2.80;99.90
9564;DHT22;4820;50.870;4.702;2024-01-07T12:39:53;2.70;99.90
9564;DHT22;4820;50.870;4.702;2024-01-07T12:42:20;2.70;99.90
9564;DHT22;4820;50.870;4.702;2024-01-07T12:44:50;2.70;99.90
9564;DHT22;4820;50.870;4.702;2024-01-07T12:47:16;2.70;99.90
9564;DHT22;4820;50.870;4.702;2024-01-07T12:49:41;2.80;99.90
9564;DHT22;4820;50.870;4.702;2024-01-07T12:52:07;2.80;99.90
9564;DHT22;4820;50.870;4.702;2024-01-07T12:54:34;2.70;99.90
9564;DHT22;4820;50.870;4.702;2024-01-07T12:57:00;2.70;99.90
9564;DHT22;4820;50.870;4.702;2024-01-07T12:59:26;2.70;99.90
9564;DHT22;4820;50.870;4.702;2024-01-07T13:01:52;2.70;99.90
9564;DHT22;4820;50.870;4.702;2024-01-07T13:04:18;2.70;99.90
9564;DHT22;4820;50.870;4.702;2024-01-07T13:06:45;2.80;99.90
9564;DHT22;4820;50.870;4.702;2024-01-07T13:09:11;2.80;99.90
9564;DHT22;4820;50.870;4.702;2024-01-07T13:11:37;2.80;99.90
9564;DHT22;4820;50.870;4.702;2024-01-07T13:14:03;2.70;99.90
9564;DHT22;4820;50.870;4.702;2024-01-07T13:16:28;2.80;99.90
9564;DHT22;4820;50.870;4.702;2024-01-07T13:18:55;2.90;99.90
9564;DHT22;4820;50.870;4.702;2024-01-07T13:21:21;2.90;99.90
9564;DHT22;4820;50.870;4.702;2024-01-07T13:23:47;2.90;99.90
9564;DHT22;4820;50.870;4.702;2024-01-07T13:26:16;2.90;99.90
9564;DHT22;4820;50.870;4.702;2024-01-07T13:28:42;2.80;99.90
9564;DHT22;4820;50.870;4.702;2024-01-07T13:31:08;2.90;99.90
9564;DHT22;4820;50.870;4.702;2024-01-07T13:33:37;2.80;99.90
9564;DHT22;4820;50.870;4.702;2024-01-07T13:36:03;2.80;99.90
9564;DHT22;4820;50.870;4.702;2024-01-07T13:38:34;2.80;99.90
9564;DHT22;4820;50.870;4.702;2024-01-07T13:41:00;2.80;99.90
9564;DHT22;4820;50.870;4.702;2024-01-07T13:43:26;2.80;99.90
9564;DHT22;4820;50.870;4.702;2024-01-07T13:45:55;2.80;99.90
9564;DHT22;4820;50.870;4.702;2024-01-07T13:48:21;2.80;99.90
9564;DHT22;4820;50.870;4.702;2024-01-07T13:50:46;2.80;99.90
9564;DHT22;4820;50.870;4.702;2024-01-07T13:53:14;2.80;99.90
9564;DHT22;4820;50.870;4.702;2024-01-07T13:55:40;2.80;99.90
9564;DHT22;4820;50.870;4.702;2024-01-07T13:58:06;2.90;99.90
9564;DHT22;4820;50.870;4.702;2024-01-07T14:00:31;2.90;99.90
9564;DHT22;4820;50.870;4.702;2024-01-07T14:02:57;2.90;99.90
9564;DHT22;4820;50.870;4.702;2024-01-07T14:05:23;2.80;99.90
9564;DHT22;4820;50.870;4.702;2024-01-07T14:07:48;2.90;99.90
9564;DHT22;4820;50.870;4.702;2024-01-07T14:10:14;2.90;99.90
9564;DHT22;4820;50.870;4.702;2024-01-07T14:12:40;2.90;99.90
9564;DHT22;4820;50.870;4.702;2024-01-07T14:15:06;2.90;99.90
9564;DHT22;4820;50.870;4.702;2024-01-07T14:17:33;2.90;99.90
9564;DHT22;4820;50.870;4.702;2024-01-07T14:19:59;2.90;99.90
9564;DHT22;4820;50.870;4.702;2024-01-07T14:22:25;2.90;99.90
9564;DHT22;4820;50.870;4.702;2024-01-07T14:24:51;2.90;99.90
9564;DHT22;4820;50.870;4.702;2024-01-07T14:27:17;2.90;99.90
9564;DHT22;4820;50.870;4.702;2024-01-07T14:29:43;2.80;99.90
9564;DHT22;4820;50.870;4.702;2024-01-07T14:32:10;2.70;99.90
9564;DHT22;4820;50.870;4.702;2024-01-07T14:34:39;2.70;99.90
9564;DHT22;4820;50.870;4.702;2024-01-07T14:37:10;2.70;99.90
9564;DHT22;4820;50.870;4.702;2024-01-07T14:39:38;2.70;99.90
9564;DHT22;4820;50.870;4.702;2024-01-07T14:42:04;2.70;99.90
9564;DHT22;4820;50.870;4.702;2024-01-07T14:44:30;2.70;99.90
9564;DHT22;4820;50.870;4.702;2024-01-07T14:46:56;2.70;99.90
9564;DHT22;4820;50.870;4.702;2024-01-07T14:49:22;2.70;99.90
9564;DHT22;4820;50.870;4.702;2024-01-07T14:51:48;2.70;99.90
9564;DHT22;4820;50.870;4.702;2024-01-07T14:54:14;2.70;99.90
9564;DHT22;4820;50.870;4.702;2024-01-07T14:56:40;2.80;99.90
9564;DHT22;4820;50.870;4.702;2024-01-07T14:59:05;2.80;99.90
9564;DHT22;4820;50.870;4.702;2024-01-07T15:01:31;2.80;99.90
9564;DHT22;4820;50.870;4.702;2024-01-07T15:03:57;2.80;99.90
9564;DHT22;4820;50.870;4.702;2024-01-07T15:06:23;2.80;99.90
9564;DHT22;4820;50.870;4.702;2024-01-07T15:08:49;2.70;99.90
9564;DHT22;4820;50.870;4.702;2024-01-07T15:11:15;2.70;99.90
9564;DHT22;4820;50.870;4.702;2024-01-07T15:13:42;2.70;99.90
9564;DHT22;4820;50.870;4.702;2024-01-07T15:16:09;2.60;99.90
9564;DHT22;4820;50.870;4.702;2024-01-07T15:18:35;2.60;99.90
9564;DHT22;4820;50.870;4.702;2024-01-07T15:21:02;2.50;99.90
9564;DHT22;4820;50.870;4.702;2024-01-07T15:23:28;2.50;99.90
9564;DHT22;4820;50.870;4.702;2024-01-07T15:25:53;2.40;99.90
9564;DHT22;4820;50.870;4.702;2024-01-07T15:28:19;2.30;99.90
9564;DHT22;4820;50.870;4.702;2024-01-07T15:30:45;2.30;99.90
9564;DHT22;4820;50.870;4.702;2024-01-07T15:33:11;2.30;99.90
9564;DHT22;4820;50.870;4.702;2024-01-07T15:35:36;2.20;99.90
9564;DHT22;4820;50.870;4.702;2024-01-07T15:38:02;2.20;99.90
9564;DHT22;4820;50.870;4.702;2024-01-07T15:40:28;2.20;99.90
9564;DHT22;4820;50.870;4.702;2024-01-07T15:42:55;2.10;99.90
9564;DHT22;4820;50.870;4.702;2024-01-07T15:45:21;2.20;99.90
9564;DHT22;4820;50.870;4.702;2024-01-07T15:47:47;2.10;99.90
9564;DHT22;4820;50.870;4.702;2024-01-07T15:50:13;2.10;99.90
9564;DHT22;4820;50.870;4.702;2024-01-07T15:52:39;2.00;99.90
9564;DHT22;4820;50.870;4.702;2024-01-07T15:55:15;2.10;99.90
9564;DHT22;4820;50.870;4.702;2024-01-07T15:57:41;2.00;99.90
9564;DHT22;4820;50.870;4.702;2024-01-07T16:00:10;2.00;99.90
9564;DHT22;4820;50.870;4.702;2024-01-07T16:02:36;2.00;99.90
9564;DHT22;4820;50.870;4.702;2024-01-07T16:05:02;2.10;99.90
9564;DHT22;4820;50.870;4.702;2024-01-07T16:07:29;2.10;99.90
9564;DHT22;4820;50.870;4.702;2024-01-07T16:09:55;2.10;99.90
9564;DHT22;4820;50.870;4.702;2024-01-07T16:12:20;2.00;99.90
9564;DHT22;4820;50.870;4.702;2024-01-07T16:14:46;2.00;99.90
9564;DHT22;4820;50.870;4.702;2024-01-07T16:17:13;1.90;99.90